.
WxDataArchive / Data Records for 2009-09-12
2009-09-11 September 2009 2009-09-13

Data Records for Saturday, 12 September 2009

Time	Temp	Chill	HIndex	Humid	Dewpt	 Wind 	HiWind	WindDir	Rain 	Barom 
-----	----	-----	------	-----	-----	------	------	-------	-----	----- 
00:00	62.7	62.7	62.7	77	55.4	0	2	90	0.00	30.163 
00:05	62.6	62.6	62.6	78	55.6	0	1	90	0.00	30.163 
00:10	62.4	62.4	62.4	78	55.4	0	0	---	0.00	30.163 
00:15	62.3	62.3	62.3	78	55.3	0	1	90	0.00	30.162 
00:20	62.0	62.0	62.0	79	55.4	0	1	90	0.00	30.162 
00:25	61.8	61.8	61.8	79	55.2	0	1	90	0.00	30.162 
00:30	61.6	61.6	61.6	80	55.4	0	3	90	0.00	30.161 
00:35	61.5	61.5	61.5	80	55.3	0	2	90	0.00	30.161 
00:40	61.5	61.5	61.5	81	55.6	1	3	90	0.00	30.161 
00:45	61.3	61.3	61.3	81	55.4	0	1	90	0.00	30.158 
00:50	61.2	61.2	61.2	81	55.3	0	2	90	0.00	30.158 
00:55	61.0	61.0	61.0	81	55.1	0	0	---	0.00	30.158 
01:00	60.9	60.9	60.9	81	55.0	0	1	90	0.00	30.163 
01:05	60.9	60.9	60.9	81	55.0	0	0	---	0.00	30.163 
01:10	60.7	60.7	60.7	82	55.2	0	0	---	0.00	30.163 
01:15	60.7	60.7	60.7	82	55.2	0	0	---	0.00	30.152 
01:20	60.5	60.5	60.5	82	55.0	0	0	---	0.00	30.152 
01:25	60.4	60.4	60.4	82	54.9	0	0	---	0.00	30.152 
01:30	60.2	60.2	60.2	83	55.0	0	0	---	0.00	30.152 
01:35	59.9	59.9	59.9	83	54.7	0	0	---	0.00	30.152 
01:40	59.8	59.8	59.8	84	55.0	0	0	---	0.00	30.152 
01:45	59.5	59.5	59.5	84	54.7	0	0	---	0.00	30.159 
01:50	59.3	59.3	59.3	85	54.8	0	0	---	0.00	30.159 
01:55	59.2	59.2	59.2	85	54.7	0	0	---	0.00	30.159 
02:00	58.9	58.9	58.9	86	54.7	0	0	---	0.00	30.162 
02:05	58.7	58.7	58.7	86	54.5	0	0	---	0.00	30.162 
02:10	58.4	58.4	58.4	86	54.2	0	0	---	0.00	30.162 
02:15	58.3	58.3	58.3	87	54.4	0	0	---	0.00	30.159 
02:20	58.1	58.1	58.1	87	54.2	0	0	---	0.00	30.159 
02:25	58.0	58.0	58.0	88	54.5	0	0	---	0.00	30.159 
02:30	57.8	57.8	57.8	88	54.3	0	0	---	0.00	30.153 
02:35	57.6	57.6	57.6	88	54.1	0	0	---	0.00	30.153 
02:40	57.5	57.5	57.5	89	54.3	0	0	---	0.00	30.153 
02:45	57.3	57.3	57.3	89	54.1	0	0	---	0.00	30.158 
02:50	57.2	57.2	57.2	89	54.0	0	0	---	0.00	30.158 
02:55	57.0	57.0	57.0	89	53.8	0	0	---	0.00	30.158 
03:00	56.9	56.9	56.9	89	53.7	0	0	---	0.00	30.151 
03:05	56.7	56.7	56.7	90	53.8	0	0	---	0.00	30.151 
03:10	56.6	56.6	56.6	90	53.7	0	0	---	0.00	30.151 
03:15	56.5	56.5	56.5	91	53.9	0	0	---	0.00	30.149 
03:20	56.3	56.3	56.3	91	53.7	0	0	---	0.00	30.149 
03:25	56.2	56.2	56.2	91	53.6	0	0	---	0.00	30.149 
03:30	56.2	56.2	56.2	91	53.6	0	0	---	0.00	30.142 
03:35	56.0	56.0	56.0	91	53.4	0	0	---	0.00	30.142 
03:40	55.9	55.9	55.9	92	53.6	0	0	---	0.00	30.142 
03:45	55.7	55.7	55.7	92	53.4	0	0	---	0.00	30.142 
03:50	55.6	55.6	55.6	92	53.3	0	0	---	0.00	30.142 
03:55	55.4	55.4	55.4	92	53.1	0	0	---	0.00	30.142 
04:00	55.4	55.4	55.4	92	53.1	0	0	---	0.00	30.136 
04:05	55.3	55.3	55.3	92	53.0	0	0	---	0.00	30.136 
04:10	55.3	55.3	55.3	92	53.0	0	0	---	0.00	30.136 
04:15	55.3	55.3	55.3	93	53.3	0	0	---	0.00	30.139 
04:20	55.1	55.1	55.1	93	53.1	0	0	---	0.00	30.139 
04:25	55.0	55.0	55.0	93	53.0	0	0	---	0.00	30.139 
04:30	55.0	55.0	55.0	93	53.0	0	0	---	0.00	30.136 
04:35	54.8	54.8	54.8	93	52.8	0	0	---	0.00	30.136 
04:40	54.8	54.8	54.8	93	52.8	0	0	---	0.00	30.136 
04:45	54.7	54.7	54.7	94	53.0	0	0	---	0.00	30.139 
04:50	54.7	54.7	54.7	94	53.0	0	0	---	0.00	30.139 
04:55	54.5	54.5	54.5	94	52.8	0	0	---	0.00	30.139 
05:00	54.5	54.5	54.5	94	52.8	0	0	---	0.00	30.136 
05:05	54.5	54.5	54.5	94	52.8	0	0	---	0.00	30.136 
05:10	54.4	54.4	54.4	94	52.7	0	0	---	0.00	30.136 
05:15	54.4	54.4	54.4	94	52.7	0	0	---	0.00	30.138 
05:20	54.2	54.2	54.2	94	52.5	0	0	---	0.00	30.138 
05:25	54.2	54.2	54.2	94	52.5	0	0	---	0.00	30.138 
05:30	54.1	54.1	54.1	94	52.4	0	0	---	0.00	30.139 
05:35	54.1	54.1	54.1	94	52.4	0	0	---	0.00	30.139 
05:40	54.1	54.1	54.1	94	52.4	0	0	---	0.00	30.139 
05:45	53.9	53.9	53.9	95	52.5	0	0	---	0.00	30.139 
05:50	53.9	53.9	53.9	95	52.5	0	0	---	0.00	30.139 
05:55	53.9	53.9	53.9	95	52.5	0	0	---	0.00	30.139 
06:00	53.9	53.9	53.9	95	52.5	0	0	---	0.00	30.138 
06:05	53.9	53.9	53.9	95	52.5	0	0	---	0.00	30.138 
06:10	53.9	53.9	53.9	95	52.5	0	0	---	0.00	30.138 
06:15	53.9	53.9	53.9	95	52.5	0	0	---	0.00	30.139 
06:20	53.9	53.9	53.9	95	52.5	0	0	---	0.00	30.139 
06:25	53.8	53.8	53.8	95	52.4	0	0	---	0.00	30.139 
06:30	53.8	53.8	53.8	95	52.4	0	0	---	0.00	30.139 
06:35	53.8	53.8	53.8	95	52.4	0	0	---	0.00	30.139 
06:40	53.8	53.8	53.8	95	52.4	0	0	---	0.00	30.139 
06:45	53.8	53.8	53.8	95	52.4	0	0	---	0.00	30.140 
06:50	53.8	53.8	53.8	95	52.4	0	0	---	0.00	30.140 
06:55	53.8	53.8	53.8	95	52.4	0	0	---	0.00	30.140 
07:00	53.8	53.8	53.8	95	52.4	0	0	---	0.00	30.141 
07:05	53.8	53.8	53.8	96	52.7	0	0	---	0.00	30.141 
07:10	53.9	53.9	53.9	96	52.8	0	0	---	0.00	30.141 
07:15	53.9	53.9	53.9	96	52.8	0	0	---	0.00	30.143 
07:20	54.1	54.1	54.1	96	53.0	0	0	---	0.00	30.143 
07:25	54.2	54.2	54.2	96	53.1	0	0	---	0.00	30.143 
07:30	54.4	54.4	54.4	96	53.3	0	0	---	0.00	30.142 
07:35	54.5	54.5	54.5	96	53.4	0	0	---	0.00	30.142 
07:40	54.5	54.5	54.5	96	53.4	0	0	---	0.00	30.142 
07:45	54.5	54.5	54.5	96	53.4	0	0	---	0.00	30.149 
07:50	54.7	54.7	54.7	96	53.6	0	0	---	0.00	30.149 
07:55	54.8	54.8	54.8	96	53.7	0	0	---	0.00	30.149 
08:00	55.0	55.0	55.0	96	53.9	0	0	---	0.00	30.154 
08:05	55.1	55.1	55.1	96	54.0	0	0	---	0.00	30.154 
08:10	55.3	55.3	55.3	96	54.2	0	0	---	0.00	30.154 
08:15	55.6	55.6	55.6	96	54.5	0	0	---	0.00	30.154 
08:20	56.0	56.0	56.0	96	54.9	0	0	---	0.00	30.154 
08:25	56.5	56.5	56.5	96	55.4	0	0	---	0.00	30.154 
08:30	56.9	56.9	56.9	96	55.8	0	1	90	0.00	30.155 
08:35	57.3	57.3	57.3	96	56.2	0	1	90	0.00	30.155 
08:40	57.5	57.5	57.5	96	56.4	0	2	90	0.00	30.155 
08:45	57.8	57.8	57.8	95	56.4	1	4	90	0.00	30.157 
08:50	58.3	58.3	58.3	93	56.3	1	4	112	0.00	30.157 
08:55	58.7	58.7	58.7	92	56.4	0	2	112	0.00	30.157 
09:00	59.2	59.2	59.2	91	56.6	0	4	112	0.00	30.156 
09:05	59.5	59.5	59.5	90	56.6	0	3	112	0.00	30.156 
09:10	60.1	60.1	60.1	90	57.2	0	1	112	0.00	30.156 
09:15	60.4	60.4	60.4	88	56.8	0	3	112	0.00	30.156 
09:20	60.7	60.7	60.7	86	56.5	1	3	112	0.00	30.156 
09:25	61.3	61.3	61.3	86	57.1	1	3	112	0.00	30.156 
09:30	61.6	61.6	61.6	84	56.7	1	4	112	0.00	30.157 
09:35	62.1	62.1	62.1	84	57.2	1	3	68	0.00	30.157 
09:40	62.6	62.6	62.6	84	57.7	0	2	68	0.00	30.157 
09:45	63.1	63.1	63.1	82	57.5	0	2	68	0.00	30.157 
09:50	63.4	63.4	63.4	80	57.1	1	3	90	0.00	30.157 
09:55	63.7	63.7	63.7	79	57.1	1	4	90	0.00	30.157 
10:00	64.0	64.0	64.0	80	57.7	1	4	68	0.00	30.157 
10:05	64.7	64.7	64.7	77	57.3	1	2	68	0.00	30.157 
10:10	65.3	65.3	65.3	76	57.5	1	3	68	0.00	30.157 
10:15	66.0	66.0	66.0	76	58.2	0	2	68	0.00	30.157 
10:20	66.4	66.4	66.4	72	57.1	1	4	90	0.00	30.157 
10:25	66.8	66.8	66.8	73	57.9	1	4	90	0.00	30.157 
10:30	66.9	66.9	66.9	73	58.0	1	5	90	0.00	30.158 
10:35	67.3	67.3	67.3	72	58.0	2	4	112	0.00	30.158 
10:40	67.6	67.6	67.6	72	58.2	1	4	112	0.00	30.158 
10:45	67.8	67.8	67.8	71	58.0	1	4	112	0.00	30.159 
10:50	67.9	67.9	67.9	71	58.1	1	4	90	0.00	30.159 
10:55	68.3	68.3	68.3	71	58.5	2	5	90	0.00	30.159 
11:00	68.4	68.4	68.4	73	59.4	1	4	90	0.00	30.159 
11:05	68.6	68.6	68.6	70	58.4	2	4	112	0.00	30.159 
11:10	69.3	69.3	69.3	69	58.7	1	4	135	0.00	30.159 
11:15	69.6	69.6	69.6	69	59.0	1	3	135	0.00	30.162 
11:20	70.1	70.1	70.1	69	59.4	1	4	112	0.00	30.162 
11:25	70.1	70.1	70.1	67	58.6	1	3	112	0.00	30.162 
11:30	70.4	70.4	70.4	68	59.3	0	2	112	0.00	30.163 
11:35	70.9	70.9	70.9	69	60.2	0	2	112	0.00	30.163 
11:40	71.1	71.1	71.1	66	59.2	0	1	112	0.00	30.163 
11:45	70.8	70.8	70.8	68	59.7	1	4	112	0.00	30.157 
11:50	70.4	70.4	70.4	69	59.7	0	1	135	0.00	30.157 
11:55	70.3	70.3	70.3	69	59.6	1	2	135	0.00	30.157 
12:00	70.3	70.3	70.3	68	59.2	2	5	112	0.00	30.161 
12:05	69.9	69.9	69.9	69	59.3	0	3	90	0.00	30.161 
12:10	69.6	69.6	69.6	66	57.7	2	5	112	0.00	30.161 
12:15	69.6	69.6	69.6	67	58.1	1	2	112	0.00	30.162 
12:20	69.8	69.8	69.8	69	59.2	1	3	112	0.00	30.162 
12:25	69.8	69.8	69.8	70	59.6	0	0	---	0.00	30.162 
12:30	69.8	69.8	69.8	71	60.0	0	3	112	0.00	30.159 
12:35	69.9	69.9	69.9	69	59.3	1	3	112	0.00	30.159 
12:40	69.9	69.9	69.9	68	58.8	1	3	112	0.00	30.159 
12:45	70.3	70.3	70.3	68	59.2	1	3	112	0.00	30.156 
12:50	70.8	70.8	70.8	69	60.1	1	3	90	0.00	30.156 
12:55	71.5	71.5	71.5	67	60.0	0	1	90	0.00	30.156 
13:00	71.8	71.8	71.8	65	59.4	1	4	90	0.00	30.151 
13:05	71.3	71.3	71.3	65	58.9	2	4	90	0.00	30.151 
13:10	70.9	70.9	70.9	66	59.0	1	3	90	0.00	30.151 
13:15	71.1	71.1	71.1	70	60.8	0	2	90	0.00	30.150 
13:20	71.5	71.5	71.5	67	60.0	0	1	90	0.00	30.150 
13:25	72.0	72.0	72.0	66	60.0	0	2	90	0.00	30.150 
13:30	72.0	72.0	72.0	66	60.0	0	1	90	0.00	30.148 
13:35	72.0	72.0	72.0	64	59.1	1	4	90	0.00	30.148 
13:40	71.8	71.8	71.8	65	59.4	1	5	112	0.00	30.148 
13:45	71.8	71.8	71.8	66	59.8	0	2	112	0.00	30.147 
13:50	72.1	72.1	72.1	64	59.2	0	2	112	0.00	30.147 
13:55	72.5	72.5	72.5	65	60.0	0	2	112	0.00	30.147 
14:00	72.7	72.7	72.7	65	60.2	0	3	112	0.00	30.141 
14:05	72.5	72.5	72.5	64	59.6	0	2	112	0.00	30.141 
14:10	72.1	72.1	72.1	65	59.7	1	2	112	0.00	30.141 
14:15	72.0	72.0	72.0	66	60.0	0	1	112	0.00	30.140 
14:20	71.6	71.6	71.6	65	59.2	0	1	112	0.00	30.140 
14:25	71.6	71.6	71.6	66	59.6	0	2	112	0.00	30.140 
14:30	71.8	71.8	71.8	65	59.4	0	2	112	0.00	30.140 
14:35	71.6	71.6	71.6	64	58.8	0	2	112	0.00	30.140 
14:40	71.5	71.5	71.5	66	59.5	0	1	112	0.00	30.140 
14:45	71.6	71.6	71.6	64	58.8	0	2	112	0.00	30.137 
14:50	72.0	72.0	72.0	64	59.1	0	3	112	0.00	30.137 
14:55	73.0	73.0	73.0	65	60.5	0	1	112	0.00	30.137 
15:00	73.7	73.7	73.7	62	59.9	0	1	112	0.00	30.130 
15:05	73.5	73.5	73.5	59	58.3	0	1	112	0.00	30.130 
15:10	73.5	73.5	73.5	60	58.7	0	3	112	0.00	30.130 
15:15	73.3	73.3	73.3	59	58.1	0	2	112	0.00	30.125 
15:20	73.5	73.5	73.5	60	58.7	0	2	112	0.00	30.125 
15:25	73.7	73.7	73.7	60	58.9	0	1	112	0.00	30.125 
15:30	73.9	73.9	73.9	60	59.1	0	1	112	0.00	30.121 
15:35	74.0	74.0	74.0	61	59.7	0	3	112	0.00	30.121 
15:40	74.4	74.4	74.4	58	58.6	0	2	112	0.00	30.121 
15:45	74.6	74.6	74.6	59	59.3	0	1	112	0.00	30.114 
15:50	74.9	74.9	74.9	59	59.6	1	3	112	0.00	30.114 
15:55	75.1	75.1	77.5	57	58.8	0	1	112	0.00	30.114 
16:00	74.9	74.9	74.9	58	59.1	1	2	22	0.00	30.109 
16:05	74.9	74.9	74.9	56	58.1	0	2	22	0.00	30.109 
16:10	75.3	75.3	77.6	57	59.0	0	3	45	0.00	30.109 
16:15	75.6	75.6	77.8	58	59.8	0	2	45	0.00	30.107 
16:20	75.8	75.8	77.9	58	59.9	0	1	45	0.00	30.107 
16:25	75.8	75.8	77.9	58	59.9	0	1	45	0.00	30.107 
16:30	75.3	75.3	77.6	58	59.5	0	2	22	0.00	30.106 
16:35	75.1	75.1	77.5	57	58.8	0	3	45	0.00	30.106 
16:40	74.7	74.7	74.7	57	58.4	0	1	45	0.00	30.106 
16:45	74.4	74.4	74.4	57	58.2	0	1	45	0.00	30.106 
16:50	74.2	74.2	74.2	57	58.0	0	2	45	0.00	30.106 
16:55	74.2	74.2	74.2	56	57.5	0	2	45	0.00	30.106 
17:00	74.2	74.2	74.2	58	58.5	0	0	---	0.00	30.105 
17:05	74.2	74.2	74.2	56	57.5	0	1	45	0.00	30.105 
17:10	74.2	74.2	74.2	57	58.0	0	2	45	0.00	30.105 
17:15	74.0	74.0	74.0	55	56.8	0	1	45	0.00	30.102 
17:20	74.0	74.0	74.0	57	57.8	1	2	45	0.00	30.102 
17:25	73.9	73.9	73.9	56	57.2	0	2	90	0.00	30.102 
17:30	73.9	73.9	73.9	58	58.2	0	3	90	0.00	30.103 
17:35	73.7	73.7	73.7	57	57.5	0	1	90	0.00	30.103 
17:40	73.7	73.7	73.7	58	58.0	0	2	90	0.00	30.103 
17:45	73.7	73.7	73.7	59	58.5	0	1	90	0.00	30.103 
17:50	73.7	73.7	73.7	58	58.0	0	1	90	0.00	30.103 
17:55	73.7	73.7	73.7	58	58.0	0	2	90	0.00	30.103 
18:00	73.7	73.7	73.7	58	58.0	0	1	90	0.00	30.103 
18:05	73.5	73.5	73.5	58	57.8	0	1	90	0.00	30.103 
18:10	73.5	73.5	73.5	59	58.3	0	1	90	0.00	30.103 
18:15	73.3	73.3	73.3	60	58.6	0	1	90	0.00	30.100 
18:20	73.2	73.2	73.2	59	58.0	0	1	90	0.00	30.100 
18:25	73.0	73.0	73.0	59	57.8	0	2	90	0.00	30.100 
18:30	73.0	73.0	73.0	58	57.3	0	1	90	0.00	30.101 
18:35	72.8	72.8	72.8	58	57.1	0	0	---	0.00	30.101 
18:40	72.8	72.8	72.8	60	58.1	0	1	90	0.00	30.101 
18:45	72.7	72.7	72.7	60	58.0	0	0	---	0.00	30.104 
18:50	72.5	72.5	72.5	60	57.8	0	0	---	0.00	30.104 
18:55	72.3	72.3	72.3	61	58.1	0	0	---	0.00	30.104 
19:00	72.1	72.1	72.1	61	57.9	0	1	90	0.00	30.103 
19:05	72.0	72.0	72.0	63	58.7	0	0	---	0.00	30.103 
19:10	71.8	71.8	71.8	62	58.1	0	0	---	0.00	30.103 
19:15	71.6	71.6	71.6	62	57.9	0	0	---	0.00	30.104 
19:20	71.5	71.5	71.5	63	58.2	0	1	90	0.00	30.104 
19:25	71.3	71.3	71.3	63	58.0	0	0	---	0.00	30.104 
19:30	70.9	70.9	70.9	64	58.1	0	0	---	0.00	30.098 
19:35	70.8	70.8	70.8	64	58.0	0	0	---	0.00	30.098 
19:40	70.4	70.4	70.4	65	58.1	0	0	---	0.00	30.098 
19:45	70.1	70.1	70.1	65	57.8	0	0	---	0.00	30.100 
19:50	69.8	69.8	69.8	66	57.9	0	0	---	0.00	30.100 
19:55	69.4	69.4	69.4	66	57.5	0	0	---	0.00	30.100 
20:00	68.9	68.9	68.9	68	57.9	0	0	---	0.00	30.103 
20:05	68.4	68.4	68.4	70	58.2	0	0	---	0.00	30.103 
20:10	68.1	68.1	68.1	70	57.9	0	0	---	0.00	30.103 
20:15	67.6	67.6	67.6	71	57.9	0	0	---	0.00	30.100 
20:20	67.1	67.1	67.1	73	58.1	0	0	---	0.00	30.100 
20:25	66.8	66.8	66.8	73	57.9	0	0	---	0.00	30.100 
20:30	66.3	66.3	66.3	75	58.1	0	0	---	0.00	30.107 
20:35	66.0	66.0	66.0	77	58.6	0	0	---	0.00	30.107 
20:40	65.5	65.5	65.5	78	58.5	0	0	---	0.00	30.107 
20:45	65.2	65.2	65.2	79	58.5	0	0	---	0.00	30.107 
20:50	64.8	64.8	64.8	80	58.5	0	0	---	0.00	30.107 
20:55	64.5	64.5	64.5	81	58.5	0	0	---	0.00	30.107 
21:00	64.3	64.3	64.3	82	58.7	0	0	---	0.00	30.110 
21:05	64.0	64.0	64.0	83	58.7	0	0	---	0.00	30.110 
21:10	63.7	63.7	63.7	83	58.4	0	0	---	0.00	30.110 
21:15	63.4	63.4	63.4	84	58.5	0	0	---	0.00	30.108 
21:20	63.1	63.1	63.1	85	58.5	0	0	---	0.00	30.108 
21:25	62.9	62.9	62.9	85	58.3	0	0	---	0.00	30.108 
21:30	62.6	62.6	62.6	85	58.0	0	0	---	0.00	30.109 
21:35	62.4	62.4	62.4	86	58.2	0	0	---	0.00	30.109 
21:40	62.1	62.1	62.1	87	58.2	0	0	---	0.00	30.109 
21:45	62.0	62.0	62.0	87	58.1	0	0	---	0.00	30.110 
21:50	61.8	61.8	61.8	88	58.2	0	0	---	0.00	30.110 
21:55	61.5	61.5	61.5	88	57.9	0	0	---	0.00	30.110 
22:00	61.3	61.3	61.3	88	57.7	0	0	---	0.00	30.114 
22:05	61.2	61.2	61.2	89	57.9	0	0	---	0.00	30.114 
22:10	60.9	60.9	60.9	89	57.6	0	0	---	0.00	30.114 
22:15	60.7	60.7	60.7	89	57.4	0	0	---	0.00	30.116 
22:20	60.5	60.5	60.5	90	57.5	0	0	---	0.00	30.116 
22:25	60.4	60.4	60.4	90	57.4	0	0	---	0.00	30.116 
22:30	60.2	60.2	60.2	91	57.6	0	0	---	0.00	30.120 
22:35	60.1	60.1	60.1	91	57.5	0	0	---	0.00	30.120 
22:40	60.1	60.1	60.1	91	57.5	0	0	---	0.00	30.120 
22:45	59.9	59.9	59.9	92	57.6	0	0	---	0.00	30.120 
22:50	59.9	59.9	59.9	92	57.6	0	0	---	0.00	30.120 
22:55	60.1	60.1	60.1	92	57.8	0	0	---	0.00	30.120 
23:00	59.9	59.9	59.9	92	57.6	0	0	---	0.00	30.116 
23:05	59.9	59.9	59.9	91	57.3	0	0	---	0.00	30.116 
23:10	59.8	59.8	59.8	91	57.2	0	0	---	0.00	30.116 
23:15	59.6	59.6	59.6	91	57.0	0	0	---	0.00	30.112 
23:20	59.5	59.5	59.5	89	56.3	0	0	---	0.00	30.112 
23:25	59.3	59.3	59.3	88	55.7	0	0	---	0.00	30.112 
23:30	59.3	59.3	59.3	87	55.4	0	0	---	0.00	30.115 
23:35	59.2	59.2	59.2	86	55.0	0	0	---	0.00	30.115 
23:40	59.0	59.0	59.0	86	54.8	0	0	---	0.00	30.115 
23:45	58.9	58.9	58.9	86	54.7	0	0	---	0.00	30.117 
23:50	58.7	58.7	58.7	86	54.5	0	0	---	0.00	30.117 
23:55	58.4	58.4	58.4	85	53.9	0	0	---	0.00	30.117 

CoCoRaHS
IN-AL-39
A2 Web Hosting
Creative Commons License
GoDaddy
search engine by freefind advanced

loaded 2018-11-15 05:05:46 • last modified 2010-11-18 10:43:29
Privacy PolicyDisclaimer
• wx.awcolley.com is powered by PmWiki v.2002016 •
• all content (unless otherwise noted) © 2018 A W Colley